createdAt,value
2018-12-17T00:00:05.367Z,37.37
2018-12-17T00:02:48.812Z,37.33
2018-12-17T00:05:25.830Z,35.77
2018-12-17T00:08:20.497Z,36.07
2018-12-17T00:11:03.932Z,39.57
2018-12-17T00:16:39.688Z,39.40
2018-12-17T00:19:14.569Z,38.60
2018-12-17T00:21:54.045Z,40.33
2018-12-17T00:24:31.830Z,38.17
2018-12-17T00:27:15.444Z,38.50
2018-12-17T00:30:12.931Z,38.63
2018-12-17T00:32:52.511Z,39.57
2018-12-17T00:35:30.379Z,39.10
2018-12-17T00:38:19.878Z,37.70
2018-12-17T00:41:01.031Z,39.53
2018-12-17T00:43:45.360Z,39.43
2018-12-17T00:46:21.079Z,38.00
2018-12-17T00:52:05.851Z,39.30
2018-12-17T00:54:40.163Z,40.23
2018-12-17T00:57:21.011Z,38.00
2018-12-17T01:00:15.536Z,38.50
2018-12-17T01:02:53.378Z,37.93
2018-12-17T01:05:29.483Z,41.77
2018-12-17T01:08:10.267Z,38.80
2018-12-17T01:10:49.390Z,39.47
2018-12-17T01:13:32.796Z,40.00
2018-12-17T01:16:10.928Z,38.53
2018-12-17T01:18:46.243Z,39.07
2018-12-17T01:21:26.130Z,39.20
2018-12-17T01:23:57.235Z,40.20
2018-12-17T01:26:32.375Z,37.93
2018-12-17T01:29:13.356Z,35.30
2018-12-17T01:31:57.027Z,39.00
2018-12-17T01:34:31.378Z,35.53
2018-12-17T01:37:12.362Z,37.67
2018-12-17T01:40:01.930Z,38.67
2018-12-17T01:42:37.787Z,40.10
2018-12-17T01:45:21.712Z,38.57
2018-12-17T01:48:18.978Z,38.97
2018-12-17T01:54:10.084Z,38.47
2018-12-17T01:56:46.214Z,38.57
2018-12-17T02:18:30.946Z,39.80
2018-12-17T02:21:11.528Z,43.63
2018-12-17T02:23:55.658Z,38.50
2018-12-17T02:26:40.445Z,35.43
2018-12-17T02:29:35.740Z,41.27
2018-12-17T02:32:06.565Z,39.67
2018-12-17T02:34:41.710Z,38.20
2018-12-17T02:37:17.873Z,42.77
2018-12-17T02:39:52.694Z,36.73
2018-12-17T02:42:39.957Z,37.97
2018-12-17T02:45:16.899Z,40.37
2018-12-17T02:47:53.155Z,43.43
2018-12-17T02:50:29.727Z,38.70
2018-12-17T02:53:24.389Z,37.73
2018-12-17T02:55:59.251Z,39.03
2018-12-17T02:58:54.669Z,41.63
2018-12-17T03:01:31.396Z,38.70
2018-12-17T03:04:04.736Z,38.90
2018-12-17T03:06:40.382Z,38.17
2018-12-17T03:09:30.097Z,39.50
2018-12-17T03:12:10.701Z,40.27
2018-12-17T03:14:52.190Z,37.83
2018-12-17T03:17:28.291Z,40.37
2018-12-17T03:20:05.406Z,38.50
2018-12-17T03:22:46.732Z,39.70
2018-12-17T03:25:28.255Z,37.27
2018-12-17T03:28:03.070Z,37.53
2018-12-17T03:30:44.569Z,40.43
2018-12-17T03:33:33.825Z,36.00
2018-12-17T03:36:17.136Z,40.27
2018-12-17T03:39:06.018Z,41.13
2018-12-17T03:41:49.365Z,39.03
2018-12-17T03:44:38.462Z,54.07
2018-12-17T03:47:12.113Z,42.37
2018-12-17T03:49:46.535Z,38.20
2018-12-17T03:52:25.329Z,36.87
2018-12-17T03:55:01.226Z,38.13
2018-12-17T03:57:38.383Z,37.10
2018-12-17T04:03:16.797Z,41.33
2018-12-17T04:06:01.666Z,39.27
2018-12-17T04:09:00.695Z,42.83
2018-12-17T04:11:37.614Z,40.90
2018-12-17T04:14:36.388Z,40.53
2018-12-17T04:17:19.839Z,38.53
2018-12-17T04:20:02.915Z,37.20
2018-12-17T04:22:41.289Z,39.40
2018-12-17T04:25:18.539Z,37.40
2018-12-17T04:27:54.683Z,38.17
2018-12-17T04:30:25.640Z,39.87
2018-12-17T04:33:02.846Z,37.43
2018-12-17T04:35:38.228Z,39.77
2018-12-17T04:38:08.911Z,40.03
2018-12-17T04:43:52.332Z,36.47
2018-12-17T04:46:25.009Z,40.23
2018-12-17T04:49:06.401Z,38.47
2018-12-17T04:51:53.568Z,42.00
2018-12-17T04:54:29.657Z,38.00
2018-12-17T04:57:04.947Z,37.63
2018-12-17T04:59:47.394Z,37.10
2018-12-17T05:02:30.519Z,39.80
2018-12-17T05:05:13.939Z,41.93
2018-12-17T05:13:05.314Z,37.27
2018-12-17T05:15:39.417Z,39.93
2018-12-17T05:34:24.050Z,43.50
2018-12-17T05:37:12.957Z,38.53
2018-12-17T05:39:44.510Z,41.77
2018-12-17T05:42:28.959Z,38.40
2018-12-17T05:45:10.381Z,40.80
2018-12-17T05:51:34.124Z,42.10
2018-12-17T05:54:17.463Z,41.20
2018-12-17T05:56:50.211Z,42.93
2018-12-17T05:59:28.716Z,39.87
2018-12-17T06:02:05.186Z,39.63
2018-12-17T06:04:47.789Z,39.47
2018-12-17T06:07:26.110Z,42.47
2018-12-17T06:10:00.856Z,38.57
2018-12-17T06:12:39.459Z,39.57
2018-12-17T06:15:14.856Z,43.80
2018-12-17T06:17:50.229Z,41.13
2018-12-17T06:20:45.513Z,37.57
2018-12-17T06:23:27.208Z,41.63
2018-12-17T06:26:06.999Z,42.13
2018-12-17T06:28:44.436Z,40.70
2018-12-17T06:31:27.462Z,40.87
2018-12-17T06:37:20.916Z,43.57
2018-12-17T06:46:27.805Z,42.93
2018-12-17T06:52:42.211Z,42.47
2018-12-17T06:55:25.929Z,43.03
2018-12-17T06:58:21.433Z,42.97
2018-12-17T07:01:02.895Z,49.77
2018-12-17T07:03:58.501Z,55.70
2018-12-17T07:06:42.174Z,45.27
2018-12-17T07:09:25.628Z,48.77
2018-12-17T07:15:34.655Z,48.60
2018-12-17T07:18:15.057Z,38.83
2018-12-17T07:21:04.518Z,49.47
2018-12-17T07:26:52.993Z,45.63
2018-12-17T07:29:42.167Z,45.57
2018-12-17T07:32:18.660Z,52.03
2018-12-17T07:34:59.751Z,48.17
2018-12-17T07:37:40.668Z,49.50
2018-12-17T07:40:30.954Z,47.83
2018-12-17T07:43:06.481Z,44.60
2018-12-17T07:45:44.479Z,43.80
2018-12-17T07:48:34.781Z,53.07
2018-12-17T07:51:23.930Z,50.03
2018-12-17T07:54:07.262Z,54.60
2018-12-17T07:56:42.475Z,53.23
2018-12-17T07:59:25.013Z,54.60
2018-12-17T08:02:09.879Z,52.90
2018-12-17T08:05:01.811Z,54.40
2018-12-17T08:07:40.911Z,50.87
2018-12-17T08:10:21.584Z,54.63
2018-12-17T08:13:05.470Z,52.77
2018-12-17T08:15:40.703Z,52.37
2018-12-17T08:18:31.262Z,54.23
2018-12-17T08:21:14.626Z,50.67
2018-12-17T08:23:56.046Z,51.37
2018-12-17T08:26:31.670Z,43.00
2018-12-17T08:29:02.795Z,48.50
2018-12-17T08:31:56.260Z,55.60
2018-12-17T08:34:39.335Z,54.53
2018-12-17T08:37:33.700Z,37.90
2018-12-17T08:40:09.305Z,55.27
2018-12-17T08:42:53.676Z,55.33
2018-12-17T08:45:34.899Z,53.17
2018-12-17T08:57:37.927Z,50.97
2018-12-17T09:00:21.136Z,47.63
2018-12-17T09:02:56.044Z,51.47
2018-12-17T09:05:39.197Z,50.97
2018-12-17T09:08:25.699Z,53.30
2018-12-17T09:11:09.877Z,53.57
2018-12-17T09:13:59.941Z,50.03
2018-12-17T09:16:42.022Z,49.90
2018-12-17T09:22:47.169Z,47.03
2018-12-17T09:25:24.908Z,42.77
2018-12-17T09:28:14.578Z,45.83
2018-12-17T09:30:57.494Z,45.93
2018-12-17T09:33:40.791Z,45.17
2018-12-17T09:36:16.043Z,39.30
2018-12-17T09:38:51.023Z,48.90
2018-12-17T09:41:38.622Z,44.20
2018-12-17T09:47:26.142Z,48.10
2018-12-17T09:50:05.512Z,42.30
2018-12-17T09:52:52.187Z,40.70
2018-12-17T09:55:36.352Z,41.23
2018-12-17T09:58:20.111Z,42.83
2018-12-17T10:01:00.876Z,40.50
2018-12-17T10:03:49.232Z,45.60
2018-12-17T10:06:29.559Z,44.33
2018-12-17T10:09:17.224Z,44.47
2018-12-17T10:12:09.579Z,30.80
2018-12-17T10:15:01.342Z,49.23
2018-12-17T10:17:43.024Z,44.93
2018-12-17T10:20:24.529Z,49.13
2018-12-17T10:23:09.636Z,42.53
2018-12-17T10:25:52.732Z,45.10
2018-12-17T10:28:48.352Z,47.37
2018-12-17T10:38:05.284Z,44.10
2018-12-17T10:40:55.250Z,40.50
2018-12-17T10:47:29.651Z,48.73
2018-12-17T10:53:06.219Z,47.57
2018-12-17T10:55:47.752Z,48.93
2018-12-17T10:58:32.008Z,47.97
2018-12-17T11:01:20.619Z,42.60
2018-12-17T11:04:16.631Z,46.70
2018-12-17T11:07:03.014Z,44.90
2018-12-17T11:13:13.148Z,44.83
2018-12-17T11:15:57.883Z,44.00
2018-12-17T11:18:41.462Z,49.70
2018-12-17T11:21:25.373Z,50.60
2018-12-17T11:24:10.422Z,49.47
2018-12-17T11:26:44.817Z,45.93
2018-12-17T11:29:38.022Z,42.87
2018-12-17T11:32:29.322Z,48.90
2018-12-17T11:35:07.223Z,47.70
2018-12-17T11:37:49.228Z,52.13
2018-12-17T11:40:27.854Z,49.57
2018-12-17T11:46:25.829Z,48.03
2018-12-17T11:49:15.223Z,46.60
2018-12-17T11:51:53.477Z,47.63
2018-12-17T11:54:41.007Z,46.97
2018-12-17T11:58:26.795Z,45.57
2018-12-17T12:04:20.461Z,47.20
2018-12-17T12:07:07.207Z,44.57
2018-12-17T12:09:48.694Z,48.40
2018-12-17T12:12:30.724Z,47.97
2018-12-17T12:15:08.612Z,47.27
2018-12-17T12:20:57.274Z,41.17
2018-12-17T12:23:41.225Z,48.90
2018-12-17T12:26:22.706Z,55.17
2018-12-17T12:29:13.110Z,47.73
2018-12-17T12:31:57.953Z,51.17
2018-12-17T12:34:43.369Z,46.20
2018-12-17T12:37:27.305Z,50.77
2018-12-17T12:40:20.531Z,49.10
2018-12-17T12:42:57.637Z,51.70
2018-12-17T12:45:33.267Z,50.57
2018-12-17T12:48:08.126Z,53.40
2018-12-17T12:50:48.804Z,47.57
2018-12-17T12:53:29.424Z,50.50
2018-12-17T12:56:14.313Z,49.33
2018-12-17T12:58:55.047Z,53.30
2018-12-17T13:01:40.834Z,48.67
2018-12-17T13:04:24.369Z,51.30
2018-12-17T13:07:05.680Z,50.07
2018-12-17T13:09:45.397Z,49.47
2018-12-17T13:25:22.218Z,51.50
2018-12-17T13:47:45.164Z,51.50
2018-12-17T13:50:30.208Z,47.90
2018-12-17T13:53:21.845Z,48.87
2018-12-17T13:59:06.168Z,45.93
2018-12-17T14:01:59.731Z,56.27
2018-12-17T14:07:48.650Z,49.10
2018-12-17T14:16:58.395Z,50.20
2018-12-17T14:19:53.847Z,55.60
2018-12-17T14:22:48.345Z,55.43
2018-12-17T14:25:33.458Z,49.27
2018-12-17T14:28:30.051Z,49.30
2018-12-17T14:34:26.254Z,50.07
2018-12-17T14:40:34.326Z,45.83
2018-12-17T14:46:36.191Z,48.80
2018-12-17T14:52:45.273Z,50.70
2018-12-17T16:00:47.816Z,52.87
2018-12-17T16:03:48.821Z,27.40
2018-12-17T16:06:33.302Z,46.10
2018-12-17T16:09:33.440Z,49.43
2018-12-17T16:12:24.007Z,26.40
2018-12-17T16:15:15.783Z,42.77
2018-12-17T16:21:13.298Z,43.03
2018-12-17T16:30:28.292Z,38.17
2018-12-17T16:33:15.797Z,45.87
2018-12-17T18:06:45.295Z,51.03
2018-12-17T18:55:12.075Z,56.00
